Time;durP1;ratioP1;P1;durP2;ratioP2;P2;SDS_P1;SDS_P2;PMS_P1;PMS_P2;Temp;Humidity;BMP_temperature;BMP_pressure;BME280_temperature;BME280_humidity;BME280_pressure;Samples;Min_cycle;Max_cycle;Signal;HPM_P1;HPM_P2
2023/01/10 00:01:25;;;;;;;2.42;0.90;;;7.50;99.90;;;;;;6312879;22;20003;-76
2023/01/10 00:03:51;;;;;;;3.22;1.05;;;7.50;99.90;;;;;;6285383;22;20101;-77
2023/01/10 00:06:16;;;;;;;4.35;1.42;;;7.50;99.90;;;;;;6285335;22;20011;-76
2023/01/10 00:08:42;;;;;;;3.60;1.10;;;7.50;99.90;;;;;;6285288;22;20014;-77
2023/01/10 00:14:12;;;;;;;5.22;1.10;;;7.50;99.90;;;;;;6218064;23;20008;-77
2023/01/10 00:16:38;;;;;;;6.10;1.27;;;7.50;99.90;;;;;;6218258;23;20465;-77
2023/01/10 00:19:05;;;;;;;2.83;0.90;;;7.50;99.90;;;;;;6247604;22;20436;-77
2023/01/10 00:21:30;;;;;;;8.75;2.17;;;7.50;99.90;;;;;;6281886;22;20003;-76
2023/01/10 00:24:07;;;;;;;4.60;1.27;;;7.50;99.90;;;;;;6281690;22;20011;-76
2023/01/10 00:26:33;;;;;;;5.68;1.27;;;7.50;99.90;;;;;;6281945;22;19999;-76
2023/01/10 00:28:58;;;;;;;9.23;1.33;;;7.50;99.90;;;;;;6281956;22;20082;-76
2023/01/10 00:31:24;;;;;;;6.25;1.40;;;7.60;99.90;;;;;;6281653;22;20365;-76
2023/01/10 00:33:50;;;;;;;5.00;1.42;;;7.50;99.90;;;;;;6281388;22;20371;-76
2023/01/10 00:36:15;;;;;;;3.83;1.00;;;7.60;99.90;;;;;;6254957;22;20454;-76
2023/01/10 00:38:41;;;;;;;5.10;1.42;;;7.60;99.90;;;;;;6281568;22;20026;-76
2023/01/10 00:43:55;;;;;;;3.20;0.93;;;7.60;99.90;;;;;;6281558;22;20000;-76
2023/01/10 00:43:58;;;;;;;2.53;0.80;;;7.60;99.90;;;;;;6281073;22;20007;-76
2023/01/10 00:46:25;;;;;;;3.55;1.02;;;7.60;99.90;;;;;;6281292;22;20006;-76
2023/01/10 00:48:51;;;;;;;3.15;0.80;;;7.70;99.90;;;;;;6281302;22;20004;-76
2023/01/10 00:51:17;;;;;;;3.70;0.77;;;7.70;99.90;;;;;;6253980;22;20053;-76
2023/01/10 00:53:43;;;;;;;3.97;1.00;;;7.70;99.90;;;;;;6254777;22;20003;-76
2023/01/10 00:56:09;;;;;;;4.28;1.00;;;7.70;99.90;;;;;;6280209;22;20329;-77
2023/01/10 00:58:34;;;;;;;4.70;1.33;;;7.70;99.90;;;;;;6281207;22;20010;-78
2023/01/10 01:01:00;;;;;;;3.28;0.95;;;7.70;99.90;;;;;;6281290;22;19999;-77
2023/01/10 01:03:26;;;;;;;4.38;1.42;;;7.70;99.90;;;;;;6254483;22;20444;-77
2023/01/10 01:05:52;;;;;;;4.13;1.27;;;7.70;99.90;;;;;;6281013;22;20006;-76
2023/01/10 01:08:18;;;;;;;2.60;1.00;;;7.70;99.90;;;;;;6281293;22;20007;-76
2023/01/10 01:10:44;;;;;;;3.45;1.15;;;7.70;99.90;;;;;;6281248;22;19996;-78
2023/01/10 01:13:17;;;;;;;6.32;1.33;;;7.80;99.90;;;;;;6253831;22;20004;-78
2023/01/10 01:15:43;;;;;;;4.82;1.23;;;7.80;99.90;;;;;;6300843;22;20015;-78
2023/01/10 01:18:12;;;;;;;2.80;1.02;;;7.80;99.90;;;;;;6311447;22;19999;-77
2023/01/10 01:20:39;;;;;;;5.28;1.30;;;7.80;99.90;;;;;;6311953;22;20003;-77
2023/01/10 01:23:05;;;;;;;3.85;1.60;;;7.80;99.90;;;;;;6285101;22;20037;-78
2023/01/10 01:25:31;;;;;;;4.03;1.10;;;7.80;99.90;;;;;;6284499;22;20009;-78
2023/01/10 01:27:57;;;;;;;3.55;1.23;;;7.80;99.90;;;;;;6312011;22;20099;-78
2023/01/10 01:30:23;;;;;;;6.10;1.40;;;7.80;99.90;;;;;;6284853;22;20003;-77
2023/01/10 01:32:48;;;;;;;4.30;1.27;;;7.80;99.90;;;;;;6312189;22;20302;-78
2023/01/10 01:35:16;;;;;;;4.80;1.30;;;7.80;99.90;;;;;;6312159;22;20014;-78
2023/01/10 01:37:42;;;;;;;3.13;1.30;;;7.80;99.90;;;;;;6285088;22;20011;-77
2023/01/10 01:40:17;;;;;;;2.03;0.95;;;7.90;99.90;;;;;;6284434;22;20011;-77
2023/01/10 01:42:44;;;;;;;3.25;1.17;;;7.90;99.90;;;;;;6284833;22;20030;-77
2023/01/10 01:45:21;;;;;;;3.78;1.15;;;7.90;99.90;;;;;;6284556;22;20140;-77
2023/01/10 01:48:07;;;;;;;3.95;1.25;;;7.90;99.90;;;;;;6312454;22;19995;-77
2023/01/10 01:50:58;;;;;;;3.78;1.13;;;7.90;99.90;;;;;;6312131;22;19999;-78
2023/01/10 01:53:31;;;;;;;2.78;0.90;;;7.90;99.90;;;;;;6310479;22;20004;-78
2023/01/10 01:56:02;;;;;;;3.60;0.88;;;7.90;99.90;;;;;;6312430;22;20579;-78
2023/01/10 01:58:38;;;;;;;2.50;0.95;;;7.90;99.90;;;;;;6311763;22;19999;-78
2023/01/10 02:01:04;;;;;;;2.85;1.02;;;8.00;99.90;;;;;;6284934;22;20011;-78
2023/01/10 02:03:30;;;;;;;3.78;1.20;;;7.90;99.90;;;;;;6312011;22;20056;-77
2023/01/10 02:05:56;;;;;;;4.43;1.13;;;7.90;99.90;;;;;;6311878;22;20007;-78
2023/01/10 02:08:22;;;;;;;3.67;1.10;;;7.90;99.90;;;;;;6284874;22;20420;-77
2023/01/10 02:11:01;;;;;;;3.63;1.02;;;7.90;99.90;;;;;;6311893;22;20075;-78
2023/01/10 02:13:27;;;;;;;2.97;1.20;;;7.90;99.90;;;;;;6311974;22;20010;-77
2023/01/10 02:15:53;;;;;;;4.85;1.10;;;7.90;99.90;;;;;;6311889;22;20047;-77
2023/01/10 02:18:20;;;;;;;4.88;1.13;;;7.90;99.90;;;;;;6313096;22;20060;-77
2023/01/10 02:20:51;;;;;;;3.00;0.80;;;7.90;99.90;;;;;;6286494;22;20003;-77
2023/01/10 02:23:35;;;;;;;2.50;0.90;;;8.00;99.90;;;;;;6314074;22;20011;-77
2023/01/10 02:26:15;;;;;;;5.75;1.33;;;8.00;99.90;;;;;;6312769;22;20004;-77
2023/01/10 02:29:09;;;;;;;4.88;1.38;;;8.00;99.90;;;;;;6312197;22;20006;-76
2023/01/10 02:32:08;;;;;;;3.63;1.38;;;8.00;99.90;;;;;;6313930;22;20010;-76
2023/01/10 02:34:46;;;;;;;3.80;0.90;;;8.00;99.90;;;;;;6314238;22;20052;-77
2023/01/10 02:37:50;;;;;;;2.67;0.80;;;8.00;99.90;;;;;;6314187;22;19999;-76
2023/01/10 02:40:43;;;;;;;4.22;1.10;;;8.00;99.90;;;;;;6285465;22;20383;-76
2023/01/10 02:43:17;;;;;;;2.83;1.13;;;8.00;99.90;;;;;;6313555;22;20000;-76
2023/01/10 02:45:49;;;;;;;1.90;1.00;;;8.00;99.90;;;;;;6313434;22;19997;-77
2023/01/10 02:48:16;;;;;;;4.20;0.98;;;8.10;99.90;;;;;;6313620;22;20007;-76
2023/01/10 02:50:41;;;;;;;3.95;1.42;;;8.10;99.90;;;;;;6313417;22;20516;-76
2023/01/10 02:53:30;;;;;;;3.78;1.20;;;8.10;99.90;;;;;;6312440;22;19999;-76
2023/01/10 02:56:17;;;;;;;3.08;1.10;;;8.10;99.90;;;;;;6285170;22;19999;-76
2023/01/10 02:58:52;;;;;;;2.13;0.70;;;8.10;99.90;;;;;;6311634;22;20003;-76
2023/01/10 03:01:41;;;;;;;3.72;1.13;;;8.10;99.90;;;;;;6313616;22;20026;-75
2023/01/10 03:04:23;;;;;;;3.60;0.90;;;8.10;99.90;;;;;;6313494;22;20039;-76
2023/01/10 03:07:13;;;;;;;3.25;0.90;;;8.10;99.90;;;;;;6313385;22;20048;-76
2023/01/10 03:09:44;;;;;;;5.03;1.08;;;8.10;99.90;;;;;;6313401;22;20022;-76
2023/01/10 03:12:34;;;;;;;3.85;1.00;;;8.20;99.90;;;;;;6286008;22;20003;-75
2023/01/10 03:15:03;;;;;;;3.55;1.00;;;8.20;99.90;;;;;;6313529;22;20036;-76
2023/01/10 03:17:30;;;;;;;3.30;1.05;;;8.20;99.90;;;;;;6285416;22;20010;-76
2023/01/10 03:20:03;;;;;;;3.70;1.05;;;8.20;99.90;;;;;;6313540;22;20005;-76
2023/01/10 03:22:32;;;;;;;4.70;1.00;;;8.20;99.90;;;;;;6313532;22;20424;-76
2023/01/10 03:25:00;;;;;;;2.80;1.17;;;8.20;99.90;;;;;;6285864;22;20014;-76
2023/01/10 03:28:10;;;;;;;4.78;1.00;;;8.20;99.90;;;;;;6313095;22;19995;-76
2023/01/10 03:30:41;;;;;;;2.92;0.90;;;8.20;99.90;;;;;;6235065;22;20007;-76
2023/01/10 03:33:10;;;;;;;1.92;0.80;;;8.20;99.90;;;;;;6311966;22;20105;-76
2023/01/10 03:36:22;;;;;;;4.70;1.00;;;8.20;99.90;;;;;;6285152;22;20003;-77
2023/01/10 03:39:25;;;;;;;4.82;1.25;;;8.30;99.90;;;;;;6312468;22;19995;-76
2023/01/10 03:42:09;;;;;;;2.50;0.73;;;8.30;99.90;;;;;;6291555;22;20080;-76
2023/01/10 03:45:16;;;;;;;5.90;1.42;;;8.30;99.90;;;;;;6285706;22;20144;-76
2023/01/10 03:47:45;;;;;;;3.70;1.00;;;8.30;99.90;;;;;;6157736;23;20001;-76
2023/01/10 03:50:23;;;;;;;2.80;0.85;;;8.30;99.90;;;;;;6283631;22;20010;-76
2023/01/10 03:52:49;;;;;;;2.28;0.95;;;8.30;99.90;;;;;;6285389;22;20049;-77
2023/01/10 03:55:19;;;;;;;3.30;1.13;;;8.30;99.90;;;;;;6313047;22;20000;-76
2023/01/10 03:57:45;;;;;;;4.35;1.00;;;8.30;99.90;;;;;;6312703;22;20006;-76
2023/01/10 04:00:12;;;;;;;5.40;1.38;;;8.30;99.90;;;;;;6285323;22;20428;-77
2023/01/10 04:02:38;;;;;;;4.65;1.10;;;8.30;99.90;;;;;;6312763;22;20053;-77
2023/01/10 04:05:04;;;;;;;4.85;1.02;;;8.30;99.90;;;;;;6285366;22;20003;-76
2023/01/10 04:07:30;;;;;;;5.10;1.35;;;8.30;99.90;;;;;;6312688;22;20578;-77
2023/01/10 04:09:56;;;;;;;4.38;1.17;;;8.30;99.90;;;;;;6285615;22;20006;-77
2023/01/10 04:12:22;;;;;;;3.47;1.13;;;8.30;99.90;;;;;;6312271;22;19995;-77
2023/01/10 04:14:48;;;;;;;6.53;1.23;;;8.30;99.90;;;;;;6312618;22;20015;-76
2023/01/10 04:17:15;;;;;;;4.15;1.23;;;8.30;99.90;;;;;;6285382;22;20014;-76
2023/01/10 04:19:41;;;;;;;4.78;1.15;;;8.30;99.90;;;;;;6312532;22;19999;-76
2023/01/10 04:22:07;;;;;;;3.60;1.00;;;8.30;99.90;;;;;;6312752;22;20443;-76
2023/01/10 04:24:33;;;;;;;2.53;1.13;;;8.30;99.90;;;;;;6312247;22;21136;-76
2023/01/10 04:26:59;;;;;;;4.53;1.27;;;8.30;99.90;;;;;;6285255;22;20003;-76
2023/01/10 04:29:25;;;;;;;4.78;1.08;;;8.30;99.90;;;;;;6312999;22;19995;-76
2023/01/10 04:31:50;;;;;;;5.68;1.70;;;8.30;99.90;;;;;;6312658;22;19996;-76
2023/01/10 04:34:18;;;;;;;5.32;1.75;;;8.30;99.90;;;;;;6312523;22;20006;-76
2023/01/10 04:36:45;;;;;;;3.72;1.13;;;8.30;99.90;;;;;;6312831;22;20064;-76
2023/01/10 04:39:11;;;;;;;6.65;1.65;;;8.30;99.90;;;;;;6284984;22;20137;-77
2023/01/10 04:41:36;;;;;;;6.72;1.30;;;8.30;99.90;;;;;;6311868;22;20005;-77
2023/01/10 04:44:02;;;;;;;4.82;1.33;;;8.30;99.90;;;;;;6285362;22;20018;-77
2023/01/10 04:46:28;;;;;;;5.97;1.25;;;8.30;99.90;;;;;;6312502;22;20003;-76
2023/01/10 04:48:54;;;;;;;5.20;1.40;;;8.30;99.90;;;;;;6312533;22;19996;-76
2023/01/10 04:51:20;;;;;;;3.45;1.10;;;8.40;99.90;;;;;;6312425;22;20076;-76
2023/01/10 04:53:46;;;;;;;4.13;1.55;;;8.40;99.90;;;;;;6312544;22;20003;-77
2023/01/10 04:56:17;;;;;;;5.05;1.20;;;8.40;99.90;;;;;;6312707;22;19999;-77
2023/01/10 04:58:43;;;;;;;4.88;1.23;;;8.40;99.90;;;;;;6285005;22;20013;-77
2023/01/10 05:01:10;;;;;;;4.80;0.95;;;8.40;99.90;;;;;;6312979;22;19999;-77
2023/01/10 05:03:36;;;;;;;3.15;0.95;;;8.40;99.90;;;;;;6312370;22;20662;-77
2023/01/10 05:06:03;;;;;;;4.25;1.23;;;8.40;99.90;;;;;;6284940;22;20008;-78
2023/01/10 05:08:28;;;;;;;4.68;1.30;;;8.40;99.90;;;;;;6312497;22;20074;-76
2023/01/10 05:10:54;;;;;;;7.40;1.42;;;8.40;99.90;;;;;;6284857;22;20007;-77
2023/01/10 05:13:19;;;;;;;5.47;1.10;;;8.40;99.90;;;;;;6312529;22;20535;-76
2023/01/10 05:15:45;;;;;;;3.25;1.10;;;8.40;99.90;;;;;;6312219;22;20022;-76
2023/01/10 05:18:11;;;;;;;3.92;1.35;;;8.40;99.90;;;;;;6285133;22;20003;-77
2023/01/10 05:20:36;;;;;;;3.92;1.00;;;8.40;99.90;;;;;;6312488;22;20054;-77
2023/01/10 05:23:02;;;;;;;3.38;1.13;;;8.40;99.90;;;;;;6312429;22;20003;-76
2023/01/10 05:25:28;;;;;;;3.33;0.73;;;8.40;99.90;;;;;;6311965;22;20003;-77
2023/01/10 05:27:54;;;;;;;2.72;1.02;;;8.50;99.90;;;;;;6312261;22;20117;-77
2023/01/10 05:30:20;;;;;;;3.05;1.05;;;8.40;99.90;;;;;;6312123;22;19996;-76
2023/01/10 05:32:46;;;;;;;3.75;0.90;;;8.40;99.90;;;;;;6285098;22;19999;-76
2023/01/10 05:35:11;;;;;;;2.67;0.90;;;8.50;99.90;;;;;;6285081;22;20053;-76
2023/01/10 05:37:37;;;;;;;3.75;1.00;;;8.50;99.90;;;;;;6312209;22;20317;-76
2023/01/10 05:40:04;;;;;;;5.00;1.70;;;8.40;99.90;;;;;;6311969;22;20003;-76
2023/01/10 05:42:30;;;;;;;4.60;1.13;;;8.40;99.90;;;;;;6284646;22;20003;-76
2023/01/10 05:44:55;;;;;;;5.93;1.20;;;8.40;99.90;;;;;;6312527;22;20006;-78
2023/01/10 05:47:21;;;;;;;3.35;1.08;;;8.40;99.90;;;;;;6284934;22;20004;-77
2023/01/10 05:49:47;;;;;;;3.67;1.10;;;8.40;99.90;;;;;;6310786;22;20006;-77
2023/01/10 05:52:13;;;;;;;3.50;1.08;;;8.40;99.90;;;;;;6312099;22;20003;-77
2023/01/10 05:54:39;;;;;;;5.47;1.10;;;8.40;99.90;;;;;;6314401;22;19999;-76
2023/01/10 05:57:06;;;;;;;3.30;0.88;;;8.40;99.90;;;;;;6313699;22;20020;-75
2023/01/10 05:59:32;;;;;;;2.70;0.80;;;8.40;99.90;;;;;;6287132;22;20283;-76
2023/01/10 06:01:57;;;;;;;3.03;1.02;;;8.40;99.90;;;;;;6314220;22;20035;-76
2023/01/10 06:04:23;;;;;;;2.97;1.45;;;8.50;99.90;;;;;;6312250;22;20004;-77
2023/01/10 06:06:49;;;;;;;3.17;1.02;;;8.50;99.90;;;;;;6313836;22;20332;-77
2023/01/10 06:09:15;;;;;;;3.92;1.00;;;8.50;99.90;;;;;;6286959;22;20000;-76
2023/01/10 06:11:40;;;;;;;2.17;0.65;;;8.50;99.90;;;;;;6313882;22;19999;-77
2023/01/10 06:14:06;;;;;;;3.47;0.88;;;8.50;99.90;;;;;;6312412;22;20030;-77
2023/01/10 06:16:32;;;;;;;3.75;1.05;;;8.50;99.90;;;;;;6282822;22;20016;-77
2023/01/10 06:18:58;;;;;;;2.88;0.80;;;8.50;99.90;;;;;;6281401;22;20384;-76
2023/01/10 06:21:23;;;;;;;1.48;0.65;;;8.50;99.90;;;;;;6256064;22;20053;-77
2023/01/10 06:23:49;;;;;;;3.78;1.25;;;8.50;99.90;;;;;;6281175;22;20456;-76
2023/01/10 06:26:15;;;;;;;3.03;0.85;;;8.50;99.90;;;;;;6255860;22;20008;-76
2023/01/10 06:28:41;;;;;;;2.05;0.95;;;8.60;99.90;;;;;;6282031;22;20000;-76
2023/01/10 06:31:07;;;;;;;2.65;0.80;;;8.60;99.90;;;;;;6282310;22;20034;-76
2023/01/10 06:33:33;;;;;;;2.20;0.80;;;8.60;99.90;;;;;;6282695;22;20083;-76
2023/01/10 06:35:59;;;;;;;2.40;0.63;;;8.60;99.90;;;;;;6282687;22;20004;-76
2023/01/10 06:38:25;;;;;;;2.00;0.70;;;8.70;99.90;;;;;;6282749;22;20443;-76
2023/01/10 06:40:50;;;;;;;1.75;0.57;;;8.60;99.90;;;;;;6254667;22;20004;-77
2023/01/10 06:43:16;;;;;;;1.88;0.75;;;8.60;99.90;;;;;;6281807;22;20000;-76
2023/01/10 06:45:42;;;;;;;2.50;0.63;;;8.70;99.90;;;;;;6282357;22;20007;-78
2023/01/10 06:48:07;;;;;;;4.38;0.60;;;8.70;99.90;;;;;;6255955;22;20059;-78
2023/01/10 06:50:33;;;;;;;1.38;0.50;;;8.70;99.90;;;;;;6282751;22;20003;-77
2023/01/10 06:53:01;;;;;;;1.27;0.52;;;8.70;99.90;;;;;;6282352;22;19996;-77
2023/01/10 06:55:28;;;;;;;2.17;0.50;;;8.80;99.90;;;;;;6255258;22;20088;-77
2023/01/10 06:57:57;;;;;;;2.30;0.60;;;8.80;99.90;;;;;;6254965;22;20004;-77
2023/01/10 07:00:24;;;;;;;1.35;0.50;;;8.80;99.90;;;;;;6281876;22;20031;-78
2023/01/10 07:02:49;;;;;;;1.00;0.40;;;8.80;99.90;;;;;;6254370;22;20455;-76
2023/01/10 07:05:15;;;;;;;1.13;0.47;;;8.80;99.90;;;;;;6282621;22;20003;-76
2023/01/10 07:07:41;;;;;;;1.02;0.43;;;8.80;99.90;;;;;;6282308;22;20447;-77
2023/01/10 07:10:07;;;;;;;0.43;0.28;;;8.80;99.90;;;;;;6255096;22;20073;-76
2023/01/10 07:12:33;;;;;;;1.42;0.40;;;8.80;99.90;;;;;;6281377;22;19999;-76
2023/01/10 07:14:59;;;;;;;1.25;0.40;;;8.80;99.90;;;;;;6292638;22;20336;-76
2023/01/10 07:17:24;;;;;;;1.38;0.40;;;8.90;99.90;;;;;;6312167;22;20313;-77
2023/01/10 07:19:50;;;;;;;1.27;0.47;;;8.80;99.90;;;;;;6311686;22;20385;-75
2023/01/10 07:22:16;;;;;;;0.77;0.55;;;8.90;99.90;;;;;;6285549;22;20378;-76
2023/01/10 07:24:41;;;;;;;1.48;0.60;;;8.90;99.90;;;;;;6313063;22;20404;-75
2023/01/10 07:27:07;;;;;;;0.63;0.38;;;8.90;99.90;;;;;;6312062;22;20090;-76
2023/01/10 07:29:33;;;;;;;0.95;0.40;;;8.90;99.90;;;;;;6310541;22;20086;-76
2023/01/10 07:31:58;;;;;;;1.05;0.30;;;9.00;99.90;;;;;;6310889;22;19999;-76
2023/01/10 07:34:24;;;;;;;1.10;0.40;;;9.00;99.90;;;;;;6312471;22;20006;-76
2023/01/10 07:36:49;;;;;;;0.43;0.30;;;9.00;99.90;;;;;;6312627;22;20035;-75
2023/01/10 07:39:15;;;;;;;0.47;0.30;;;9.00;99.90;;;;;;6313216;22;20082;-76
2023/01/10 07:41:41;;;;;;;1.58;0.50;;;9.00;99.90;;;;;;6313016;22;20033;-77
2023/01/10 07:44:06;;;;;;;1.05;0.30;;;9.00;99.90;;;;;;6310798;22;20033;-76
2023/01/10 07:46:32;;;;;;;1.25;0.35;;;9.10;99.90;;;;;;6284846;22;20082;-76
2023/01/10 07:48:58;;;;;;;1.30;0.40;;;9.00;99.90;;;;;;6312021;22;20329;-76
2023/01/10 07:51:23;;;;;;;0.65;0.30;;;9.10;99.90;;;;;;6310676;22;20003;-77
2023/01/10 07:53:49;;;;;;;0.75;0.30;;;9.10;99.90;;;;;;6312057;22;20378;-77
2023/01/10 07:56:15;;;;;;;1.38;0.40;;;9.10;99.90;;;;;;6283817;22;20892;-77
2023/01/10 07:58:40;;;;;;;0.60;0.47;;;9.10;99.90;;;;;;6312462;22;20090;-76
2023/01/10 08:01:06;;;;;;;1.13;0.50;;;9.10;99.90;;;;;;6284514;22;20655;-77
2023/01/10 08:03:32;;;;;;;0.70;0.43;;;9.10;99.90;;;;;;6311458;22;20450;-76
2023/01/10 08:05:59;;;;;;;0.80;0.30;;;9.20;99.90;;;;;;6312521;22;19995;-75
2023/01/10 08:08:25;;;;;;;2.15;0.60;;;9.20;99.90;;;;;;6284762;22;20006;-76
2023/01/10 08:10:51;;;;;;;0.90;0.50;;;9.20;99.90;;;;;;6312517;22;19996;-76
2023/01/10 08:13:16;;;;;;;0.43;0.30;;;9.20;99.90;;;;;;6284565;22;20085;-77
2023/01/10 08:15:42;;;;;;;0.70;0.40;;;9.20;99.90;;;;;;6311588;22;20014;-77
2023/01/10 08:18:07;;;;;;;0.68;0.40;;;9.30;99.90;;;;;;6312535;22;19996;-77
2023/01/10 08:20:33;;;;;;;0.68;0.30;;;9.30;99.90;;;;;;6312159;22;20070;-76
2023/01/10 08:22:59;;;;;;;1.33;0.50;;;9.30;99.90;;;;;;6311377;22;20000;-77
2023/01/10 08:25:25;;;;;;;0.88;0.45;;;9.40;99.90;;;;;;6310946;22;20403;-77
2023/01/10 08:27:51;;;;;;;1.08;0.40;;;9.40;99.90;;;;;;6285262;22;19999;-78
2023/01/10 08:30:17;;;;;;;2.05;0.60;;;9.40;99.90;;;;;;6312459;22;19999;-76
2023/01/10 08:32:43;;;;;;;1.25;0.45;;;9.40;99.90;;;;;;6284627;22;20520;-76
2023/01/10 08:35:09;;;;;;;0.75;0.30;;;9.50;99.90;;;;;;6284636;22;20003;-76
2023/01/10 08:37:34;;;;;;;0.60;0.30;;;9.50;99.90;;;;;;6312299;22;20451;-76
2023/01/10 08:40:01;;;;;;;1.55;0.43;;;9.60;99.90;;;;;;6312633;22;20003;-76
2023/01/10 08:42:26;;;;;;;0.63;0.50;;;9.60;99.90;;;;;;6312359;22;20011;-76
2023/01/10 08:44:53;;;;;;;0.50;0.30;;;9.60;99.90;;;;;;6285071;22;20345;-76
2023/01/10 08:47:19;;;;;;;0.80;0.45;;;9.70;99.90;;;;;;6312345;22;20335;-76
2023/01/10 08:49:46;;;;;;;0.57;0.43;;;9.70;99.90;;;;;;6285389;22;20033;-77
2023/01/10 08:52:12;;;;;;;1.85;0.70;;;9.80;99.90;;;;;;6285447;22;20007;-77
2023/01/10 08:54:37;;;;;;;0.93;0.50;;;9.80;99.90;;;;;;6312210;22;20003;-77
2023/01/10 08:57:03;;;;;;;1.15;0.40;;;9.90;99.90;;;;;;6312030;22;20038;-75
2023/01/10 08:59:29;;;;;;;0.45;0.30;;;9.90;99.90;;;;;;6312512;22;20003;-75
2023/01/10 09:01:57;;;;;;;1.63;0.60;;;9.90;99.90;;;;;;6312043;22;20007;-76
2023/01/10 09:04:23;;;;;;;0.95;0.60;;;10.00;99.90;;;;;;6284943;22;20003;-76
2023/01/10 09:06:49;;;;;;;1.42;0.43;;;10.00;99.90;;;;;;6312481;22;20305;-76
2023/01/10 09:09:14;;;;;;;3.25;0.60;;;10.00;99.90;;;;;;6312264;22;20030;-77
2023/01/10 09:11:40;;;;;;;0.77;0.50;;;10.10;99.90;;;;;;6311794;22;19997;-76
2023/01/10 09:14:06;;;;;;;0.60;0.43;;;10.10;99.90;;;;;;6311708;22;20031;-76
2023/01/10 09:16:32;;;;;;;1.65;0.50;;;10.10;99.90;;;;;;6284269;22;20019;-76
2023/01/10 09:18:58;;;;;;;2.25;0.82;;;10.20;99.90;;;;;;6312483;22;20056;-76
2023/01/10 09:21:23;;;;;;;0.82;0.60;;;10.20;99.90;;;;;;6312726;22;20003;-76
2023/01/10 09:23:49;;;;;;;1.75;0.70;;;10.30;99.90;;;;;;6311851;22;20101;-76
2023/01/10 09:26:15;;;;;;;3.78;0.77;;;10.30;99.90;;;;;;6312364;22;19995;-76
2023/01/10 09:28:40;;;;;;;1.80;0.63;;;10.40;99.90;;;;;;6288896;22;20009;-76
2023/01/10 09:31:07;;;;;;;2.42;0.65;;;10.40;99.90;;;;;;6287657;22;20464;-76
2023/01/10 09:33:33;;;;;;;1.48;0.80;;;10.50;99.90;;;;;;6287713;22;20359;-76
2023/01/10 09:35:59;;;;;;;1.55;0.55;;;10.50;99.90;;;;;;6315641;22;20026;-76
2023/01/10 09:38:25;;;;;;;2.40;0.75;;;10.50;99.90;;;;;;6314429;22;20008;-76
2023/01/10 09:41:11;;;;;;;3.33;0.77;;;10.60;99.90;;;;;;6315833;22;19999;-76
2023/01/10 09:43:49;;;;;;;1.48;0.75;;;10.60;99.90;;;;;;6315840;22;20093;-76
2023/01/10 09:46:33;;;;;;;1.58;0.52;;;10.70;99.90;;;;;;6315846;22;19995;-76
2023/01/10 09:48:59;;;;;;;1.50;0.52;;;;;;;;;;6315678;22;20006;-69
2023/01/10 09:51:35;;;;;;;2.22;1.00;;;10.70;99.90;;;;;;6315689;22;20000;-68
2023/01/10 09:54:05;;;;;;;2.17;0.68;;;10.80;99.90;;;;;;6315667;22;20337;-68
2023/01/10 09:56:32;;;;;;;2.50;1.10;;;10.80;99.90;;;;;;6315430;22;20007;-68
2023/01/10 09:58:59;;;;;;;2.50;0.90;;;10.80;99.90;;;;;;6315633;22;20436;-68
2023/01/10 10:01:36;;;;;;;1.65;0.63;;;10.90;99.90;;;;;;6315034;22;19999;-68
2023/01/10 10:04:13;;;;;;;5.72;0.90;;;11.00;99.90;;;;;;6287940;22;20025;-68
2023/01/10 10:06:39;;;;;;;3.92;1.17;;;11.00;99.90;;;;;;6315578;22;20022;-68
2023/01/10 10:09:05;;;;;;;3.92;0.95;;;11.10;99.90;;;;;;6315171;22;19999;-69
2023/01/10 10:11:54;;;;;;;3.22;0.98;;;11.10;99.90;;;;;;6287486;22;19999;-70
2023/01/10 10:14:45;;;;;;;3.28;0.98;;;11.20;99.90;;;;;;6315523;22;19999;-70
2023/01/10 10:17:13;;;;;;;4.20;1.02;;;11.20;99.90;;;;;;6287700;22;20432;-70
2023/01/10 10:19:54;;;;;;;3.55;1.20;;;11.30;99.90;;;;;;6314000;22;20131;-70
2023/01/10 10:22:22;;;;;;;5.25;1.48;;;11.30;99.90;;;;;;6313190;22;20034;-69
2023/01/10 10:25:11;;;;;;;3.30;1.15;;;11.40;99.90;;;;;;6314949;22;20074;-69
2023/01/10 10:28:05;;;;;;;4.18;1.40;;;11.40;99.90;;;;;;6271571;22;20057;-69
2023/01/10 10:31:05;;;;;;;5.50;1.55;;;11.40;99.90;;;;;;6315060;22;20444;-69
2023/01/10 10:33:55;;;;;;;5.18;1.42;;;11.40;99.90;;;;;;6286768;22;20448;-69
2023/01/10 10:36:53;;;;;;;5.70;1.10;;;11.50;99.90;;;;;;6286962;22;19999;-69
2023/01/10 10:39:43;;;;;;;3.17;1.20;;;11.50;99.90;;;;;;6312177;22;19999;-69
2023/01/10 10:42:15;;;;;;;7.03;1.40;;;11.70;99.90;;;;;;6313394;22;20006;-69
2023/01/10 10:44:54;;;;;;;7.53;1.67;;;11.70;99.90;;;;;;6313538;22;20053;-69
2023/01/10 10:47:22;;;;;;;5.03;1.27;;;11.80;99.90;;;;;;6313327;22;19995;-71
2023/01/10 10:50:13;;;;;;;6.75;1.60;;;11.90;99.90;;;;;;6286390;22;20003;-69
2023/01/10 10:52:40;;;;;;;9.40;1.80;;;12.10;99.90;;;;;;6269857;22;20007;-69
2023/01/10 10:55:11;;;;;;;6.50;1.85;;;12.10;99.90;;;;;;6313766;22;19999;-69
2023/01/10 10:57:38;;;;;;;5.82;1.50;;;12.20;99.90;;;;;;6313400;22;20000;-70
2023/01/10 11:00:06;;;;;;;8.32;1.80;;;12.20;99.90;;;;;;6313739;22;20012;-69
2023/01/10 11:02:40;;;;;;;7.88;1.60;;;12.20;99.90;;;;;;6313482;22;19999;-68
2023/01/10 11:05:14;;;;;;;5.85;1.55;;;12.30;99.90;;;;;;6313587;22;20452;-69
2023/01/10 11:07:40;;;;;;;5.57;1.40;;;12.40;99.90;;;;;;6313566;22;20007;-69
2023/01/10 11:10:33;;;;;;;9.32;2.40;;;12.40;99.90;;;;;;6313827;22;20058;-68
2023/01/10 11:13:02;;;;;;;5.43;1.90;;;12.50;99.90;;;;;;6312964;22;19999;-68
2023/01/10 11:15:41;;;;;;;3.65;1.35;;;12.40;99.90;;;;;;6311703;22;20011;-68
2023/01/10 11:18:11;;;;;;;7.95;1.73;;;12.50;99.90;;;;;;6313094;22;20006;-68
2023/01/10 11:20:45;;;;;;;8.32;1.85;;;12.50;99.90;;;;;;6311199;22;19999;-69
2023/01/10 11:23:10;;;;;;;7.63;1.60;;;12.50;99.90;;;;;;6313258;22;19999;-68
2023/01/10 11:25:44;;;;;;;11.10;2.20;;;12.60;99.90;;;;;;6313189;22;20003;-68
2023/01/10 11:28:13;;;;;;;;;;;12.70;99.90;;;;;;6313265;22;20034;-68
2023/01/10 11:30:38;;;;;;;8.55;1.83;;;12.70;99.90;;;;;;6313300;22;19899;-68
2023/01/10 11:33:07;;;;;;;9.50;1.90;;;12.80;99.90;;;;;;6313148;22;20068;-66
2023/01/10 11:35:40;;;;;;;9.00;2.13;;;12.90;99.90;;;;;;6284553;22;20153;-68
2023/01/10 11:38:20;;;;;;;9.25;1.95;;;12.90;99.90;;;;;;6285618;22;20007;-68
2023/01/10 11:41:00;;;;;;;10.10;1.70;;;13.00;99.90;;;;;;6312584;22;20096;-67
2023/01/10 11:43:30;;;;;;;6.72;1.30;;;13.00;99.90;;;;;;6311087;22;20322;-67
2023/01/10 11:46:01;;;;;;;6.78;1.75;;;13.00;99.90;;;;;;6285570;22;19995;-69
2023/01/10 11:48:43;;;;;;;5.15;1.35;;;13.00;99.90;;;;;;6312848;22;20001;-68
2023/01/10 11:51:23;;;;;;;10.27;1.73;;;13.00;99.90;;;;;;6312080;22;19999;-71
2023/01/10 11:53:59;;;;;;;7.32;1.45;;;13.00;99.90;;;;;;6313054;22;20007;-70
2023/01/10 11:56:29;;;;;;;6.70;1.70;;;13.00;99.90;;;;;;6312503;22;20137;-71
2023/01/10 11:58:57;;;;;;;9.98;2.15;;;13.00;99.90;;;;;;6312563;22;20011;-70
2023/01/10 12:01:51;;;;;;;10.30;2.53;;;13.00;99.90;;;;;;6312523;22;19999;-70
2023/01/10 12:04:19;;;;;;;10.02;2.28;;;13.00;99.90;;;;;;6312272;22;20030;-69
2023/01/10 12:06:52;;;;;;;8.35;1.90;;;13.00;99.90;;;;;;6312938;22;19999;-70
2023/01/10 12:09:41;;;;;;;8.85;1.90;;;13.00;99.90;;;;;;6312567;22;20082;-71
2023/01/10 12:12:18;;;;;;;9.63;1.98;;;13.10;99.90;;;;;;6284801;22;20335;-71
2023/01/10 12:14:44;;;;;;;9.20;2.00;;;13.10;99.90;;;;;;6312736;22;20019;-69
2023/01/10 12:17:20;;;;;;;7.82;2.08;;;13.20;99.90;;;;;;6284985;22;20026;-69
2023/01/10 12:19:45;;;;;;;9.18;2.10;;;13.20;99.90;;;;;;6312892;22;20003;-69
2023/01/10 12:22:14;;;;;;;9.93;1.98;;;13.30;99.90;;;;;;6312557;22;20006;-70
2023/01/10 12:24:43;;;;;;;11.07;2.05;;;13.40;99.90;;;;;;6312262;22;20003;-69
2023/01/10 12:27:12;;;;;;;7.07;1.85;;;13.40;99.90;;;;;;6312161;22;20451;-70
2023/01/10 12:29:44;;;;;;;10.98;2.05;;;13.50;99.90;;;;;;6312551;22;19996;-70
2023/01/10 12:32:22;;;;;;;7.55;1.92;;;13.50;99.90;;;;;;6285327;22;19999;-71
2023/01/10 12:34:59;;;;;;;8.77;2.05;;;13.50;99.90;;;;;;6284698;22;20063;-73
2023/01/10 12:37:35;;;;;;;11.75;2.08;;;13.60;99.90;;;;;;6312681;22;19999;-72
2023/01/10 12:40:27;;;;;;;12.02;2.22;;;13.60;99.90;;;;;;6312906;22;20120;-73
2023/01/10 12:46:21;;;;;;;14.43;2.72;;;13.70;99.90;;;;;;6312284;22;20053;-71
2023/01/10 12:48:55;;;;;;;7.63;1.92;;;13.70;99.90;;;;;;6312344;22;20030;-70
2023/01/10 12:51:25;;;;;;;8.95;2.45;;;13.70;99.90;;;;;;6284640;22;20003;-70
2023/01/10 12:54:00;;;;;;;10.48;2.50;;;13.70;99.90;;;;;;6310854;22;19999;-68
2023/01/10 12:56:27;;;;;;;10.00;2.55;;;13.70;99.90;;;;;;6279090;22;20011;-70
2023/01/10 12:59:01;;;;;;;9.82;2.10;;;13.70;99.90;;;;;;6308027;22;20000;-72
2023/01/10 13:01:31;;;;;;;10.32;2.10;;;13.70;99.90;;;;;;6308034;22;20010;-72
2023/01/10 13:04:08;;;;;;;7.15;1.98;;;13.70;99.90;;;;;;6308670;22;20003;-72
2023/01/10 13:06:37;;;;;;;11.07;2.00;;;13.70;99.90;;;;;;6311857;22;19996;-72
2023/01/10 13:09:14;;;;;;;13.65;2.60;;;13.70;99.90;;;;;;6284778;22;20007;-72
2023/01/10 13:11:53;;;;;;;8.95;2.15;;;13.60;99.90;;;;;;6280217;22;20459;-72
2023/01/10 13:14:23;;;;;;;11.27;2.17;;;13.60;99.90;;;;;;6310583;22;20021;-73
2023/01/10 13:16:55;;;;;;;10.98;2.38;;;13.60;99.90;;;;;;6283428;22;20017;-72